sensor_id;sensor_type;location;lat;lon;timestamp;temperature;humidity
43627;DHT22;29217;52.586;13.442;2023-07-13T00:01:43;17.00;99.90
43627;DHT22;29217;52.586;13.442;2023-07-13T00:04:09;17.00;99.90
43627;DHT22;29217;52.586;13.442;2023-07-13T00:06:35;17.00;99.90
43627;DHT22;29217;52.586;13.442;2023-07-13T00:09:01;17.00;99.90
43627;DHT22;29217;52.586;13.442;2023-07-13T00:11:27;17.10;99.90
43627;DHT22;29217;52.586;13.442;2023-07-13T00:13:52;17.10;99.90
43627;DHT22;29217;52.586;13.442;2023-07-13T00:16:18;17.10;99.90
43627;DHT22;29217;52.586;13.442;2023-07-13T00:18:45;17.10;99.90
43627;DHT22;29217;52.586;13.442;2023-07-13T00:21:11;17.10;99.90
43627;DHT22;29217;52.586;13.442;2023-07-13T00:23:39;17.20;99.90
43627;DHT22;29217;52.586;13.442;2023-07-13T00:26:08;17.20;99.90
43627;DHT22;29217;52.586;13.442;2023-07-13T00:28:34;17.20;99.90
43627;DHT22;29217;52.586;13.442;2023-07-13T00:31:00;17.10;99.90
43627;DHT22;29217;52.586;13.442;2023-07-13T00:33:27;17.20;99.90
43627;DHT22;29217;52.586;13.442;2023-07-13T00:35:55;17.10;99.90
43627;DHT22;29217;52.586;13.442;2023-07-13T00:38:21;17.10;99.90
43627;DHT22;29217;52.586;13.442;2023-07-13T00:40:47;17.10;99.90
43627;DHT22;29217;52.586;13.442;2023-07-13T00:43:18;17.00;99.90
43627;DHT22;29217;52.586;13.442;2023-07-13T00:48:11;17.00;99.90
43627;DHT22;29217;52.586;13.442;2023-07-13T00:50:38;17.00;99.90
43627;DHT22;29217;52.586;13.442;2023-07-13T00:53:04;16.90;99.90
43627;DHT22;29217;52.586;13.442;2023-07-13T00:55:30;16.80;99.90
43627;DHT22;29217;52.586;13.442;2023-07-13T00:57:56;16.80;99.90
43627;DHT22;29217;52.586;13.442;2023-07-13T01:00:22;16.70;99.90
43627;DHT22;29217;52.586;13.442;2023-07-13T01:02:48;16.70;99.90
43627;DHT22;29217;52.586;13.442;2023-07-13T01:05:18;16.40;99.90
43627;DHT22;29217;52.586;13.442;2023-07-13T01:07:44;16.40;99.90
43627;DHT22;29217;52.586;13.442;2023-07-13T01:10:11;16.10;99.90
43627;DHT22;29217;52.586;13.442;2023-07-13T01:12:37;16.10;99.90
43627;DHT22;29217;52.586;13.442;2023-07-13T01:15:04;16.00;99.90
43627;DHT22;29217;52.586;13.442;2023-07-13T01:17:32;15.90;99.90
43627;DHT22;29217;52.586;13.442;2023-07-13T01:19:58;16.00;99.90
43627;DHT22;29217;52.586;13.442;2023-07-13T01:22:25;15.80;99.90
43627;DHT22;29217;52.586;13.442;2023-07-13T01:24:53;15.90;99.90
43627;DHT22;29217;52.586;13.442;2023-07-13T01:27:24;15.80;99.90
43627;DHT22;29217;52.586;13.442;2023-07-13T01:29:51;15.90;99.90
43627;DHT22;29217;52.586;13.442;2023-07-13T01:32:23;15.90;99.90
43627;DHT22;29217;52.586;13.442;2023-07-13T01:34:50;15.90;99.90
43627;DHT22;29217;52.586;13.442;2023-07-13T01:37:16;15.80;99.90
43627;DHT22;29217;52.586;13.442;2023-07-13T01:39:42;15.80;99.90
43627;DHT22;29217;52.586;13.442;2023-07-13T01:42:08;15.80;99.90
43627;DHT22;29217;52.586;13.442;2023-07-13T01:44:34;15.80;99.90
43627;DHT22;29217;52.586;13.442;2023-07-13T01:47:01;15.80;99.90
43627;DHT22;29217;52.586;13.442;2023-07-13T01:49:26;15.70;99.90
43627;DHT22;29217;52.586;13.442;2023-07-13T01:51:52;15.70;99.90
43627;DHT22;29217;52.586;13.442;2023-07-13T01:54:18;15.60;99.90
43627;DHT22;29217;52.586;13.442;2023-07-13T01:56:43;15.60;99.90
43627;DHT22;29217;52.586;13.442;2023-07-13T01:59:09;15.60;99.90
43627;DHT22;29217;52.586;13.442;2023-07-13T02:01:35;15.60;99.90
43627;DHT22;29217;52.586;13.442;2023-07-13T02:04:01;15.60;99.90
43627;DHT22;29217;52.586;13.442;2023-07-13T02:06:26;15.60;99.90
43627;DHT22;29217;52.586;13.442;2023-07-13T02:08:52;15.50;99.90
43627;DHT22;29217;52.586;13.442;2023-07-13T02:11:17;15.50;99.90
43627;DHT22;29217;52.586;13.442;2023-07-13T02:13:43;15.40;99.90
43627;DHT22;29217;52.586;13.442;2023-07-13T02:16:09;15.20;99.90
43627;DHT22;29217;52.586;13.442;2023-07-13T02:18:34;15.20;99.90
43627;DHT22;29217;52.586;13.442;2023-07-13T02:21:00;15.30;99.90
43627;DHT22;29217;52.586;13.442;2023-07-13T02:23:26;15.30;99.90
43627;DHT22;29217;52.586;13.442;2023-07-13T02:25:56;15.30;99.90
43627;DHT22;29217;52.586;13.442;2023-07-13T02:28:22;15.40;99.90
43627;DHT22;29217;52.586;13.442;2023-07-13T02:30:47;15.30;99.90
43627;DHT22;29217;52.586;13.442;2023-07-13T02:33:13;15.30;99.90
43627;DHT22;29217;52.586;13.442;2023-07-13T02:35:38;15.30;99.90
43627;DHT22;29217;52.586;13.442;2023-07-13T02:38:04;15.30;99.90
43627;DHT22;29217;52.586;13.442;2023-07-13T02:40:30;15.30;99.90
43627;DHT22;29217;52.586;13.442;2023-07-13T02:42:58;15.20;99.90
43627;DHT22;29217;52.586;13.442;2023-07-13T02:45:24;15.20;99.90
43627;DHT22;29217;52.586;13.442;2023-07-13T02:47:50;15.20;99.90
43627;DHT22;29217;52.586;13.442;2023-07-13T02:50:15;15.20;99.90
43627;DHT22;29217;52.586;13.442;2023-07-13T02:52:41;15.10;99.90
43627;DHT22;29217;52.586;13.442;2023-07-13T02:55:07;14.90;99.90
43627;DHT22;29217;52.586;13.442;2023-07-13T02:57:32;14.70;99.90
43627;DHT22;29217;52.586;13.442;2023-07-13T02:59:59;14.80;99.90
43627;DHT22;29217;52.586;13.442;2023-07-13T03:02:25;14.90;99.90
43627;DHT22;29217;52.586;13.442;2023-07-13T03:04:54;14.90;99.90
43627;DHT22;29217;52.586;13.442;2023-07-13T03:07:20;14.90;99.90
43627;DHT22;29217;52.586;13.442;2023-07-13T03:09:45;15.00;99.90
43627;DHT22;29217;52.586;13.442;2023-07-13T03:12:11;15.00;99.90
43627;DHT22;29217;52.586;13.442;2023-07-13T03:14:36;15.00;99.90
43627;DHT22;29217;52.586;13.442;2023-07-13T03:17:02;14.90;99.90
43627;DHT22;29217;52.586;13.442;2023-07-13T03:19:28;14.90;99.90
43627;DHT22;29217;52.586;13.442;2023-07-13T03:21:53;14.90;99.90
43627;DHT22;29217;52.586;13.442;2023-07-13T03:24:19;14.90;99.90
43627;DHT22;29217;52.586;13.442;2023-07-13T03:26:45;15.00;99.90
43627;DHT22;29217;52.586;13.442;2023-07-13T03:29:11;15.00;99.90
43627;DHT22;29217;52.586;13.442;2023-07-13T03:31:37;15.00;99.90
43627;DHT22;29217;52.586;13.442;2023-07-13T03:34:03;14.80;99.90
43627;DHT22;29217;52.586;13.442;2023-07-13T03:36:30;14.80;99.90
43627;DHT22;29217;52.586;13.442;2023-07-13T03:38:59;14.90;99.90
43627;DHT22;29217;52.586;13.442;2023-07-13T03:41:25;15.00;99.90
43627;DHT22;29217;52.586;13.442;2023-07-13T03:43:51;15.00;99.90
43627;DHT22;29217;52.586;13.442;2023-07-13T03:46:17;15.10;99.90
43627;DHT22;29217;52.586;13.442;2023-07-13T03:48:45;15.20;99.90
43627;DHT22;29217;52.586;13.442;2023-07-13T03:51:13;15.30;99.90
43627;DHT22;29217;52.586;13.442;2023-07-13T03:53:41;15.20;99.90
43627;DHT22;29217;52.586;13.442;2023-07-13T03:56:07;15.30;99.90
43627;DHT22;29217;52.586;13.442;2023-07-13T03:58:35;15.40;99.90
43627;DHT22;29217;52.586;13.442;2023-07-13T04:01:02;15.50;99.90
43627;DHT22;29217;52.586;13.442;2023-07-13T04:03:29;15.60;99.90
43627;DHT22;29217;52.586;13.442;2023-07-13T04:05:58;15.70;99.90
43627;DHT22;29217;52.586;13.442;2023-07-13T04:08:26;15.70;99.90
43627;DHT22;29217;52.586;13.442;2023-07-13T04:10:52;15.70;99.90
43627;DHT22;29217;52.586;13.442;2023-07-13T04:13:18;15.60;99.90
43627;DHT22;29217;52.586;13.442;2023-07-13T04:15:43;15.80;99.90
43627;DHT22;29217;52.586;13.442;2023-07-13T04:18:09;15.90;99.90
43627;DHT22;29217;52.586;13.442;2023-07-13T04:20:34;15.90;99.90
43627;DHT22;29217;52.586;13.442;2023-07-13T04:23:00;15.90;99.90
43627;DHT22;29217;52.586;13.442;2023-07-13T04:25:26;16.00;99.90
43627;DHT22;29217;52.586;13.442;2023-07-13T04:27:52;16.10;99.90
43627;DHT22;29217;52.586;13.442;2023-07-13T04:30:19;16.20;99.90
43627;DHT22;29217;52.586;13.442;2023-07-13T04:32:44;16.30;99.90
43627;DHT22;29217;52.586;13.442;2023-07-13T04:35:10;16.40;99.90
43627;DHT22;29217;52.586;13.442;2023-07-13T04:37:35;16.50;99.90
43627;DHT22;29217;52.586;13.442;2023-07-13T04:40:01;16.50;99.90
43627;DHT22;29217;52.586;13.442;2023-07-13T04:42:27;16.60;99.90
43627;DHT22;29217;52.586;13.442;2023-07-13T04:44:52;16.70;99.90
43627;DHT22;29217;52.586;13.442;2023-07-13T04:47:18;16.70;99.90
43627;DHT22;29217;52.586;13.442;2023-07-13T04:49:44;16.90;99.90
43627;DHT22;29217;52.586;13.442;2023-07-13T04:52:11;17.00;99.90
43627;DHT22;29217;52.586;13.442;2023-07-13T04:54:37;17.00;99.90
43627;DHT22;29217;52.586;13.442;2023-07-13T04:57:03;17.10;99.90
43627;DHT22;29217;52.586;13.442;2023-07-13T04:59:32;17.20;99.90
43627;DHT22;29217;52.586;13.442;2023-07-13T05:01:57;17.30;99.90
43627;DHT22;29217;52.586;13.442;2023-07-13T05:04:23;17.30;99.90
43627;DHT22;29217;52.586;13.442;2023-07-13T05:06:49;17.40;99.90
43627;DHT22;29217;52.586;13.442;2023-07-13T05:09:14;17.40;99.90
43627;DHT22;29217;52.586;13.442;2023-07-13T05:11:40;17.50;99.90
43627;DHT22;29217;52.586;13.442;2023-07-13T05:14:05;17.60;99.90
43627;DHT22;29217;52.586;13.442;2023-07-13T05:16:31;17.60;99.90
43627;DHT22;29217;52.586;13.442;2023-07-13T05:18:57;17.70;99.90
43627;DHT22;29217;52.586;13.442;2023-07-13T05:21:24;17.80;99.90
43627;DHT22;29217;52.586;13.442;2023-07-13T05:23:49;17.80;99.90
43627;DHT22;29217;52.586;13.442;2023-07-13T05:26:15;18.00;99.90
43627;DHT22;29217;52.586;13.442;2023-07-13T05:28:41;18.00;99.90
43627;DHT22;29217;52.586;13.442;2023-07-13T05:31:08;18.10;99.90
43627;DHT22;29217;52.586;13.442;2023-07-13T05:33:34;18.20;99.90
43627;DHT22;29217;52.586;13.442;2023-07-13T05:36:00;18.30;99.90
43627;DHT22;29217;52.586;13.442;2023-07-13T05:38:26;18.30;99.90
43627;DHT22;29217;52.586;13.442;2023-07-13T05:40:54;18.40;99.90
43627;DHT22;29217;52.586;13.442;2023-07-13T05:43:20;18.50;99.90
43627;DHT22;29217;52.586;13.442;2023-07-13T05:45:46;18.60;99.90
43627;DHT22;29217;52.586;13.442;2023-07-13T05:48:12;18.60;99.90
43627;DHT22;29217;52.586;13.442;2023-07-13T05:50:38;18.60;99.90
43627;DHT22;29217;52.586;13.442;2023-07-13T05:53:03;18.70;99.90
43627;DHT22;29217;52.586;13.442;2023-07-13T05:55:29;18.80;99.90
43627;DHT22;29217;52.586;13.442;2023-07-13T05:57:55;18.90;99.90
43627;DHT22;29217;52.586;13.442;2023-07-13T06:00:20;18.90;99.90
43627;DHT22;29217;52.586;13.442;2023-07-13T06:02:46;19.00;99.90
43627;DHT22;29217;52.586;13.442;2023-07-13T06:05:11;19.10;99.90
43627;DHT22;29217;52.586;13.442;2023-07-13T06:07:38;19.20;99.90
43627;DHT22;29217;52.586;13.442;2023-07-13T06:10:04;19.30;99.90
43627;DHT22;29217;52.586;13.442;2023-07-13T06:12:29;19.40;99.90
43627;DHT22;29217;52.586;13.442;2023-07-13T06:14:55;19.50;99.90
43627;DHT22;29217;52.586;13.442;2023-07-13T06:17:20;19.60;99.90
43627;DHT22;29217;52.586;13.442;2023-07-13T06:19:46;19.70;99.90
43627;DHT22;29217;52.586;13.442;2023-07-13T06:22:12;19.90;99.90
43627;DHT22;29217;52.586;13.442;2023-07-13T06:24:37;20.00;99.90
43627;DHT22;29217;52.586;13.442;2023-07-13T06:27:03;20.10;99.90
43627;DHT22;29217;52.586;13.442;2023-07-13T06:29:29;20.20;99.90
43627;DHT22;29217;52.586;13.442;2023-07-13T06:31:54;20.20;99.90
43627;DHT22;29217;52.586;13.442;2023-07-13T06:34:20;20.30;99.90
43627;DHT22;29217;52.586;13.442;2023-07-13T06:36:46;20.40;99.90
43627;DHT22;29217;52.586;13.442;2023-07-13T06:39:11;20.40;99.90
43627;DHT22;29217;52.586;13.442;2023-07-13T06:41:37;20.40;99.90
43627;DHT22;29217;52.586;13.442;2023-07-13T06:44:04;20.50;99.90
43627;DHT22;29217;52.586;13.442;2023-07-13T06:46:30;20.50;99.90
43627;DHT22;29217;52.586;13.442;2023-07-13T06:48:56;20.50;99.90
43627;DHT22;29217;52.586;13.442;2023-07-13T06:51:21;20.60;99.90
43627;DHT22;29217;52.586;13.442;2023-07-13T06:53:47;20.70;99.90
43627;DHT22;29217;52.586;13.442;2023-07-13T06:56:13;20.70;99.90
43627;DHT22;29217;52.586;13.442;2023-07-13T06:58:39;20.70;99.90
43627;DHT22;29217;52.586;13.442;2023-07-13T07:01:05;20.90;99.90
43627;DHT22;29217;52.586;13.442;2023-07-13T07:03:30;20.90;99.90
43627;DHT22;29217;52.586;13.442;2023-07-13T07:08:35;21.10;99.90
43627;DHT22;29217;52.586;13.442;2023-07-13T07:11:00;21.00;99.90
43627;DHT22;29217;52.586;13.442;2023-07-13T07:13:26;21.10;99.90
43627;DHT22;29217;52.586;13.442;2023-07-13T07:15:53;21.10;99.90
43627;DHT22;29217;52.586;13.442;2023-07-13T07:18:19;21.20;99.90
43627;DHT22;29217;52.586;13.442;2023-07-13T07:20:44;21.30;99.90
43627;DHT22;29217;52.586;13.442;2023-07-13T07:23:10;21.40;99.90
43627;DHT22;29217;52.586;13.442;2023-07-13T07:25:36;21.50;99.90
43627;DHT22;29217;52.586;13.442;2023-07-13T07:28:07;21.60;99.90
43627;DHT22;29217;52.586;13.442;2023-07-13T07:30:33;21.70;99.90
43627;DHT22;29217;52.586;13.442;2023-07-13T07:32:58;21.90;99.90
43627;DHT22;29217;52.586;13.442;2023-07-13T07:35:24;22.00;99.90
43627;DHT22;29217;52.586;13.442;2023-07-13T07:37:50;22.20;99.90
43627;DHT22;29217;52.586;13.442;2023-07-13T07:40:15;22.20;99.90
43627;DHT22;29217;52.586;13.442;2023-07-13T07:42:41;22.30;99.90
43627;DHT22;29217;52.586;13.442;2023-07-13T07:45:07;22.30;99.90
43627;DHT22;29217;52.586;13.442;2023-07-13T07:47:33;22.40;99.90
43627;DHT22;29217;52.586;13.442;2023-07-13T07:49:58;22.40;99.90
43627;DHT22;29217;52.586;13.442;2023-07-13T07:52:24;22.30;99.90
43627;DHT22;29217;52.586;13.442;2023-07-13T07:54:50;22.30;99.90
43627;DHT22;29217;52.586;13.442;2023-07-13T07:57:15;22.40;99.90
43627;DHT22;29217;52.586;13.442;2023-07-13T07:59:41;22.40;99.90
43627;DHT22;29217;52.586;13.442;2023-07-13T08:02:08;22.50;99.90
43627;DHT22;29217;52.586;13.442;2023-07-13T08:04:34;22.50;99.90
43627;DHT22;29217;52.586;13.442;2023-07-13T08:06:59;22.50;99.90
43627;DHT22;29217;52.586;13.442;2023-07-13T08:09:28;22.50;99.90
43627;DHT22;29217;52.586;13.442;2023-07-13T08:11:54;22.60;99.90
43627;DHT22;29217;52.586;13.442;2023-07-13T08:14:20;22.80;99.90
43627;DHT22;29217;52.586;13.442;2023-07-13T08:16:46;23.00;99.90
43627;DHT22;29217;52.586;13.442;2023-07-13T08:19:11;23.00;99.90
43627;DHT22;29217;52.586;13.442;2023-07-13T08:21:37;22.90;99.90
43627;DHT22;29217;52.586;13.442;2023-07-13T08:24:03;23.00;99.90
43627;DHT22;29217;52.586;13.442;2023-07-13T08:26:29;22.90;99.90
43627;DHT22;29217;52.586;13.442;2023-07-13T08:28:54;23.00;99.90
43627;DHT22;29217;52.586;13.442;2023-07-13T08:31:20;23.20;99.90
43627;DHT22;29217;52.586;13.442;2023-07-13T08:33:46;23.30;99.90
43627;DHT22;29217;52.586;13.442;2023-07-13T08:36:11;23.10;99.90
43627;DHT22;29217;52.586;13.442;2023-07-13T08:38:37;22.90;99.90
43627;DHT22;29217;52.586;13.442;2023-07-13T08:41:13;22.90;99.90
43627;DHT22;29217;52.586;13.442;2023-07-13T08:43:41;22.90;99.90
43627;DHT22;29217;52.586;13.442;2023-07-13T08:46:40;22.80;99.90
43627;DHT22;29217;52.586;13.442;2023-07-13T08:49:15;22.80;99.90
43627;DHT22;29217;52.586;13.442;2023-07-13T08:51:45;22.90;99.90
43627;DHT22;29217;52.586;13.442;2023-07-13T08:56:43;23.00;99.90
43627;DHT22;29217;52.586;13.442;2023-07-13T08:59:13;22.90;99.90
43627;DHT22;29217;52.586;13.442;2023-07-13T09:04:23;23.10;99.90
43627;DHT22;29217;52.586;13.442;2023-07-13T09:12:17;22.90;99.90
43627;DHT22;29217;52.586;13.442;2023-07-13T09:14:47;22.90;99.90
43627;DHT22;29217;52.586;13.442;2023-07-13T09:17:20;23.10;99.90
43627;DHT22;29217;52.586;13.442;2023-07-13T09:19:56;23.20;99.90
43627;DHT22;29217;52.586;13.442;2023-07-13T09:22:23;23.30;99.90
43627;DHT22;29217;52.586;13.442;2023-07-13T09:25:32;23.30;99.90
43627;DHT22;29217;52.586;13.442;2023-07-13T09:28:24;23.50;99.90
43627;DHT22;29217;52.586;13.442;2023-07-13T09:33:20;23.40;99.90
43627;DHT22;29217;52.586;13.442;2023-07-13T09:35:46;23.50;99.90
43627;DHT22;29217;52.586;13.442;2023-07-13T09:38:17;23.50;99.90
43627;DHT22;29217;52.586;13.442;2023-07-13T09:44:07;23.70;99.90
43627;DHT22;29217;52.586;13.442;2023-07-13T09:46:38;23.80;99.90
43627;DHT22;29217;52.586;13.442;2023-07-13T09:49:04;23.90;99.90
43627;DHT22;29217;52.586;13.442;2023-07-13T09:51:29;23.90;99.90
43627;DHT22;29217;52.586;13.442;2023-07-13T09:53:56;24.00;99.90
43627;DHT22;29217;52.586;13.442;2023-07-13T09:56:25;24.10;99.90
43627;DHT22;29217;52.586;13.442;2023-07-13T09:58:52;24.10;99.90
43627;DHT22;29217;52.586;13.442;2023-07-13T10:01:32;23.90;99.90
43627;DHT22;29217;52.586;13.442;2023-07-13T10:03:58;24.00;99.90
43627;DHT22;29217;52.586;13.442;2023-07-13T10:06:24;24.00;99.90
43627;DHT22;29217;52.586;13.442;2023-07-13T10:08:51;24.20;99.90
43627;DHT22;29217;52.586;13.442;2023-07-13T10:11:23;24.20;99.90
43627;DHT22;29217;52.586;13.442;2023-07-13T10:16:36;23.90;99.90
43627;DHT22;29217;52.586;13.442;2023-07-13T10:19:10;24.30;99.90
43627;DHT22;29217;52.586;13.442;2023-07-13T10:21:43;24.30;99.90
43627;DHT22;29217;52.586;13.442;2023-07-13T10:24:26;24.00;99.90
43627;DHT22;29217;52.586;13.442;2023-07-13T10:27:05;23.80;99.90
43627;DHT22;29217;52.586;13.442;2023-07-13T10:29:37;23.80;99.90
43627;DHT22;29217;52.586;13.442;2023-07-13T10:32:09;23.80;99.90
43627;DHT22;29217;52.586;13.442;2023-07-13T10:34:36;24.50;99.90
43627;DHT22;29217;52.586;13.442;2023-07-13T10:37:03;24.60;99.90
43627;DHT22;29217;52.586;13.442;2023-07-13T10:39:30;24.40;99.90
43627;DHT22;29217;52.586;13.442;2023-07-13T10:42:06;24.00;99.90
43627;DHT22;29217;52.586;13.442;2023-07-13T10:44:35;24.20;99.90
43627;DHT22;29217;52.586;13.442;2023-07-13T10:47:03;24.40;99.90
43627;DHT22;29217;52.586;13.442;2023-07-13T10:49:32;24.60;99.90
43627;DHT22;29217;52.586;13.442;2023-07-13T10:51:58;24.70;99.90
43627;DHT22;29217;52.586;13.442;2023-07-13T10:54:30;24.90;99.90
43627;DHT22;29217;52.586;13.442;2023-07-13T10:57:22;25.20;99.90
43627;DHT22;29217;52.586;13.442;2023-07-13T11:02:28;25.50;99.90
43627;DHT22;29217;52.586;13.442;2023-07-13T11:04:55;25.20;99.90
43627;DHT22;29217;52.586;13.442;2023-07-13T11:09:56;24.90;99.90
43627;DHT22;29217;52.586;13.442;2023-07-13T11:25:41;26.00;99.90
43627;DHT22;29217;52.586;13.442;2023-07-13T11:33:17;26.20;99.90
43627;DHT22;29217;52.586;13.442;2023-07-13T11:35:49;26.60;99.90
43627;DHT22;29217;52.586;13.442;2023-07-13T11:40:45;26.70;99.90
43627;DHT22;29217;52.586;13.442;2023-07-13T11:43:14;26.90;99.90
43627;DHT22;29217;52.586;13.442;2023-07-13T11:45:41;26.70;99.90
43627;DHT22;29217;52.586;13.442;2023-07-13T11:48:27;26.70;99.90
43627;DHT22;29217;52.586;13.442;2023-07-13T11:50:57;26.80;99.90
43627;DHT22;29217;52.586;13.442;2023-07-13T11:53:27;27.00;99.90
43627;DHT22;29217;52.586;13.442;2023-07-13T11:55:53;27.40;99.90
43627;DHT22;29217;52.586;13.442;2023-07-13T11:58:22;27.60;99.90
43627;DHT22;29217;52.586;13.442;2023-07-13T12:00:49;27.80;99.90
43627;DHT22;29217;52.586;13.442;2023-07-13T12:03:19;27.60;99.90
43627;DHT22;29217;52.586;13.442;2023-07-13T12:06:02;27.60;99.90
43627;DHT22;29217;52.586;13.442;2023-07-13T12:08:29;27.70;99.90
43627;DHT22;29217;52.586;13.442;2023-07-13T12:11:04;27.90;99.90
43627;DHT22;29217;52.586;13.442;2023-07-13T12:13:37;28.00;99.90
43627;DHT22;29217;52.586;13.442;2023-07-13T12:16:12;28.00;99.90
43627;DHT22;29217;52.586;13.442;2023-07-13T12:18:39;27.80;99.90
43627;DHT22;29217;52.586;13.442;2023-07-13T12:21:05;27.70;99.90
43627;DHT22;29217;52.586;13.442;2023-07-13T12:23:34;28.10;99.90
43627;DHT22;29217;52.586;13.442;2023-07-13T12:26:03;28.10;99.90
43627;DHT22;29217;52.586;13.442;2023-07-13T12:28:38;27.90;99.90
43627;DHT22;29217;52.586;13.442;2023-07-13T12:31:06;27.90;99.90
43627;DHT22;29217;52.586;13.442;2023-07-13T12:33:33;28.00;99.90
43627;DHT22;29217;52.586;13.442;2023-07-13T12:36:03;28.20;99.90
43627;DHT22;29217;52.586;13.442;2023-07-13T12:38:31;28.00;99.90
43627;DHT22;29217;52.586;13.442;2023-07-13T12:40:57;28.20;99.90
43627;DHT22;29217;52.586;13.442;2023-07-13T12:43:24;27.90;99.90
43627;DHT22;29217;52.586;13.442;2023-07-13T12:46:18;27.90;99.90
43627;DHT22;29217;52.586;13.442;2023-07-13T12:48:49;27.40;99.90
43627;DHT22;29217;52.586;13.442;2023-07-13T12:51:16;27.20;99.90
43627;DHT22;29217;52.586;13.442;2023-07-13T12:53:50;27.30;99.90
43627;DHT22;29217;52.586;13.442;2023-07-13T12:56:22;27.70;99.90
43627;DHT22;29217;52.586;13.442;2023-07-13T12:58:50;27.50;99.90
43627;DHT22;29217;52.586;13.442;2023-07-13T13:01:21;27.20;99.90
43627;DHT22;29217;52.586;13.442;2023-07-13T13:03:50;27.00;99.90
43627;DHT22;29217;52.586;13.442;2023-07-13T13:06:26;26.70;99.90
43627;DHT22;29217;52.586;13.442;2023-07-13T13:08:57;26.30;99.90
43627;DHT22;29217;52.586;13.442;2023-07-13T13:11:24;26.50;99.90
43627;DHT22;29217;52.586;13.442;2023-07-13T13:13:52;26.60;99.90
43627;DHT22;29217;52.586;13.442;2023-07-13T13:16:43;26.70;99.90
43627;DHT22;29217;52.586;13.442;2023-07-13T13:19:16;27.20;99.90
43627;DHT22;29217;52.586;13.442;2023-07-13T13:21:43;27.10;99.90
43627;DHT22;29217;52.586;13.442;2023-07-13T13:24:15;26.80;99.90
43627;DHT22;29217;52.586;13.442;2023-07-13T13:26:42;26.50;99.90
43627;DHT22;29217;52.586;13.442;2023-07-13T13:29:20;27.00;99.90
43627;DHT22;29217;52.586;13.442;2023-07-13T13:31:46;27.20;99.90
43627;DHT22;29217;52.586;13.442;2023-07-13T13:34:14;27.40;99.90
43627;DHT22;29217;52.586;13.442;2023-07-13T13:36:41;27.60;99.90
43627;DHT22;29217;52.586;13.442;2023-07-13T13:39:23;27.80;99.90
43627;DHT22;29217;52.586;13.442;2023-07-13T13:41:53;27.20;99.90
43627;DHT22;29217;52.586;13.442;2023-07-13T13:44:19;27.30;99.90
43627;DHT22;29217;52.586;13.442;2023-07-13T13:46:49;27.60;99.90
43627;DHT22;29217;52.586;13.442;2023-07-13T13:49:18;28.00;99.90
43627;DHT22;29217;52.586;13.442;2023-07-13T13:51:46;28.20;99.90
43627;DHT22;29217;52.586;13.442;2023-07-13T13:54:14;28.30;99.90
43627;DHT22;29217;52.586;13.442;2023-07-13T13:56:43;28.10;99.90
43627;DHT22;29217;52.586;13.442;2023-07-13T13:59:10;27.90;99.90
43627;DHT22;29217;52.586;13.442;2023-07-13T14:01:36;27.90;99.90
43627;DHT22;29217;52.586;13.442;2023-07-13T14:04:03;27.60;99.90
43627;DHT22;29217;52.586;13.442;2023-07-13T14:06:31;27.50;99.90
43627;DHT22;29217;52.586;13.442;2023-07-13T14:08:56;27.30;99.90
43627;DHT22;29217;52.586;13.442;2023-07-13T14:11:22;27.30;99.90
43627;DHT22;29217;52.586;13.442;2023-07-13T14:13:49;27.60;99.90
43627;DHT22;29217;52.586;13.442;2023-07-13T14:16:17;27.80;99.90
43627;DHT22;29217;52.586;13.442;2023-07-13T14:18:44;27.70;99.90
43627;DHT22;29217;52.586;13.442;2023-07-13T14:21:18;27.70;99.90
43627;DHT22;29217;52.586;13.442;2023-07-13T14:23:45;27.50;99.90
43627;DHT22;29217;52.586;13.442;2023-07-13T14:26:14;27.20;99.90
43627;DHT22;29217;52.586;13.442;2023-07-13T14:28:47;27.20;99.90
43627;DHT22;29217;52.586;13.442;2023-07-13T14:31:14;27.00;99.90
43627;DHT22;29217;52.586;13.442;2023-07-13T14:33:40;26.90;99.90
43627;DHT22;29217;52.586;13.442;2023-07-13T14:36:29;27.20;99.90
43627;DHT22;29217;52.586;13.442;2023-07-13T14:38:57;27.50;99.90
43627;DHT22;29217;52.586;13.442;2023-07-13T14:41:23;27.30;99.90
43627;DHT22;29217;52.586;13.442;2023-07-13T14:43:49;26.90;99.90
43627;DHT22;29217;52.586;13.442;2023-07-13T14:46:24;26.80;99.90
43627;DHT22;29217;52.586;13.442;2023-07-13T14:48:53;26.90;99.90
43627;DHT22;29217;52.586;13.442;2023-07-13T14:51:20;27.00;99.90
43627;DHT22;29217;52.586;13.442;2023-07-13T14:53:46;26.70;99.90
43627;DHT22;29217;52.586;13.442;2023-07-13T14:56:12;26.70;99.90
43627;DHT22;29217;52.586;13.442;2023-07-13T14:58:38;26.70;99.90
43627;DHT22;29217;52.586;13.442;2023-07-13T15:01:13;26.40;99.90
43627;DHT22;29217;52.586;13.442;2023-07-13T15:03:46;26.20;99.90
43627;DHT22;29217;52.586;13.442;2023-07-13T15:06:13;26.10;99.90
43627;DHT22;29217;52.586;13.442;2023-07-13T15:08:39;26.10;99.90
43627;DHT22;29217;52.586;13.442;2023-07-13T15:11:09;26.00;99.90
43627;DHT22;29217;52.586;13.442;2023-07-13T15:13:38;25.90;99.90
43627;DHT22;29217;52.586;13.442;2023-07-13T15:16:05;25.90;99.90
43627;DHT22;29217;52.586;13.442;2023-07-13T15:18:36;26.00;99.90
43627;DHT22;29217;52.586;13.442;2023-07-13T15:21:09;26.00;99.90
43627;DHT22;29217;52.586;13.442;2023-07-13T15:23:36;26.00;99.90
43627;DHT22;29217;52.586;13.442;2023-07-13T15:26:01;25.90;99.90
43627;DHT22;29217;52.586;13.442;2023-07-13T15:28:28;25.80;99.90
43627;DHT22;29217;52.586;13.442;2023-07-13T15:30:54;25.80;99.90
43627;DHT22;29217;52.586;13.442;2023-07-13T15:33:26;25.80;99.90
43627;DHT22;29217;52.586;13.442;2023-07-13T15:35:53;25.70;99.90
43627;DHT22;29217;52.586;13.442;2023-07-13T15:38:22;25.70;99.90
43627;DHT22;29217;52.586;13.442;2023-07-13T15:40:49;25.60;99.90
43627;DHT22;29217;52.586;13.442;2023-07-13T15:43:18;25.60;99.90
43627;DHT22;29217;52.586;13.442;2023-07-13T15:45:46;25.60;99.90
43627;DHT22;29217;52.586;13.442;2023-07-13T15:48:20;25.60;99.90
43627;DHT22;29217;52.586;13.442;2023-07-13T15:50:51;25.50;99.90
43627;DHT22;29217;52.586;13.442;2023-07-13T15:53:23;25.50;99.90
43627;DHT22;29217;52.586;13.442;2023-07-13T15:55:50;25.50;99.90
43627;DHT22;29217;52.586;13.442;2023-07-13T15:58:17;25.50;99.90
43627;DHT22;29217;52.586;13.442;2023-07-13T16:00:44;25.50;99.90
43627;DHT22;29217;52.586;13.442;2023-07-13T16:03:10;25.50;99.90
43627;DHT22;29217;52.586;13.442;2023-07-13T16:05:36;25.50;99.90
43627;DHT22;29217;52.586;13.442;2023-07-13T16:08:04;25.30;99.90
43627;DHT22;29217;52.586;13.442;2023-07-13T16:10:36;24.90;99.90